Time;durP1;ratioP1;P1;durP2;ratioP2;P2;SDS_P1;SDS_P2;PMS_P1;PMS_P2;Temp;Humidity;BMP_temperature;BMP_pressure;BME280_temperature;BME280_humidity;BME280_pressure;Samples;Min_cycle;Max_cycle;Signal;HPM_P1;HPM_P2
2024/01/17 00:00:04;;;;;;;3.83;3.38;;;-8.50;99.90;;;;;;4908399;29;20024;-32
2024/01/17 00:02:29;;;;;;;3.03;2.90;;;-8.40;99.90;;;;;;4908379;29;20422;-41
2024/01/17 00:04:55;;;;;;;8.48;4.55;;;-8.40;99.90;;;;;;4908019;29;20032;-40
2024/01/17 00:07:21;;;;;;;5.88;5.38;;;-8.30;99.90;;;;;;4905170;29;20050;-39
2024/01/17 00:09:47;;;;;;;12.18;3.50;;;-8.20;99.90;;;;;;4907051;29;20040;-41
2024/01/17 00:12:13;;;;;;;2.85;2.75;;;-8.20;99.90;;;;;;4910199;29;20035;-41
2024/01/17 00:14:39;;;;;;;9.55;3.83;;;-8.20;99.90;;;;;;4911190;29;20536;-40
2024/01/17 00:17:04;;;;;;;9.02;5.72;;;-8.40;99.90;;;;;;4910631;29;20032;-37
2024/01/17 00:19:31;;;;;;;10.07;4.47;;;-8.40;99.90;;;;;;4911260;29;20040;-41
2024/01/17 00:21:56;;;;;;;4.47;4.18;;;-8.40;99.90;;;;;;4916935;29;20065;-42
2024/01/17 00:24:22;;;;;;;4.82;4.57;;;-8.30;99.90;;;;;;4916230;29;20032;-37
2024/01/17 00:26:48;;;;;;;6.10;4.20;;;-8.20;99.90;;;;;;4910838;29;20047;-40
2024/01/17 00:29:13;;;;;;;5.72;5.20;;;-8.10;99.90;;;;;;4914627;29;20506;-41
2024/01/17 00:31:39;;;;;;;4.32;3.97;;;-8.00;99.90;;;;;;4909153;29;20058;-39
2024/01/17 00:34:05;;;;;;;3.72;3.38;;;-7.90;99.90;;;;;;4910984;29;20458;-37
2024/01/17 00:36:31;;;;;;;6.18;5.28;;;-7.90;99.90;;;;;;4905885;29;20755;-33
2024/01/17 00:38:56;;;;;;;5.13;4.72;;;-7.90;99.90;;;;;;4909688;29;20127;-34
2024/01/17 00:41:22;;;;;;;6.97;4.88;;;-7.90;99.90;;;;;;4912229;29;21019;-33
2024/01/17 00:43:47;;;;;;;6.25;5.68;;;-7.90;99.90;;;;;;4913514;29;20114;-35
2024/01/17 00:46:13;;;;;;;10.80;5.90;;;-7.90;99.90;;;;;;4918278;29;20024;-33
2024/01/17 00:48:38;;;;;;;5.65;4.38;;;-7.90;99.90;;;;;;4916059;29;20036;-35
2024/01/17 00:51:04;;;;;;;7.72;7.03;;;-8.00;99.90;;;;;;4911840;29;20038;-33
2024/01/17 00:53:30;;;;;;;7.88;5.93;;;-7.90;99.90;;;;;;4913514;29;20036;-32
2024/01/17 00:55:55;;;;;;;7.05;6.35;;;-7.80;99.90;;;;;;4911205;29;20032;-33
2024/01/17 00:58:21;;;;;;;4.35;3.20;;;-7.70;99.90;;;;;;4911333;29;20133;-34
2024/01/17 01:00:47;;;;;;;5.28;4.55;;;-7.60;99.90;;;;;;4910885;29;20046;-33
2024/01/17 01:03:12;;;;;;;5.72;5.32;;;-7.60;99.90;;;;;;4908020;29;20039;-33
2024/01/17 01:05:39;;;;;;;5.75;5.25;;;-7.50;99.90;;;;;;4909052;29;20038;-34
2024/01/17 01:08:05;;;;;;;10.93;6.82;;;-7.50;99.90;;;;;;4913048;29;20721;-33
2024/01/17 01:10:30;;;;;;;5.93;5.60;;;-7.40;99.90;;;;;;4910805;29;20043;-33
2024/01/17 01:12:56;;;;;;;14.32;4.53;;;-7.40;99.90;;;;;;4915906;29;20028;-33
2024/01/17 01:15:22;;;;;;;8.90;7.90;;;-7.30;99.90;;;;;;4912451;29;20032;-33
2024/01/17 01:17:47;;;;;;;6.32;5.10;;;-7.30;99.90;;;;;;4910181;29;20036;-34
2024/01/17 01:20:13;;;;;;;6.95;6.40;;;-7.30;99.90;;;;;;4908242;29;20392;-33
2024/01/17 01:22:38;;;;;;;5.45;5.07;;;-7.20;99.90;;;;;;4904962;29;20032;-37
2024/01/17 01:25:05;;;;;;;5.72;5.15;;;-7.20;99.90;;;;;;4906512;29;20392;-34
2024/01/17 01:27:31;;;;;;;10.35;6.50;;;-7.10;99.90;;;;;;4907137;29;20040;-33
2024/01/17 01:29:56;;;;;;;6.32;5.75;;;-7.00;99.90;;;;;;4906653;29;20612;-36
2024/01/17 01:32:22;;;;;;;17.08;6.35;;;-7.00;99.90;;;;;;4907250;29;20040;-34
2024/01/17 01:34:47;;;;;;;17.55;6.32;;;-7.00;99.90;;;;;;4904742;29;20032;-33
2024/01/17 01:37:13;;;;;;;10.65;6.55;;;-6.90;99.90;;;;;;4906275;29;20036;-33
2024/01/17 01:39:39;;;;;;;7.47;6.47;;;-6.80;99.90;;;;;;4907053;29;20067;-38
2024/01/17 01:42:04;;;;;;;12.10;7.07;;;-6.80;99.90;;;;;;4906500;29;20043;-36
2024/01/17 01:44:30;;;;;;;5.75;5.30;;;-6.80;99.90;;;;;;4906343;29;20453;-39
2024/01/17 01:46:57;;;;;;;7.30;6.60;;;-6.70;99.90;;;;;;4904707;29;20092;-40
2024/01/17 01:49:23;;;;;;;5.35;4.90;;;-6.60;99.90;;;;;;4907239;29;20123;-37
2024/01/17 01:51:50;;;;;;;9.40;5.63;;;-6.60;99.90;;;;;;4905859;29;20387;-37
2024/01/17 01:54:19;;;;;;;9.93;6.65;;;-6.50;99.90;;;;;;4906848;29;20068;-39
2024/01/17 01:56:46;;;;;;;6.53;5.93;;;-6.50;99.90;;;;;;4905500;29;20032;-36
2024/01/17 01:59:14;;;;;;;7.32;6.50;;;-6.40;99.90;;;;;;4906545;29;20123;-41
2024/01/17 02:01:41;;;;;;;9.20;5.75;;;-6.40;99.90;;;;;;4905016;29;20046;-41
2024/01/17 02:04:07;;;;;;;5.85;5.10;;;-6.20;99.90;;;;;;4905951;29;20043;-40
2024/01/17 02:06:35;;;;;;;6.50;5.88;;;-6.20;99.90;;;;;;4906695;29;20546;-40
2024/01/17 02:09:01;;;;;;;5.15;4.75;;;-6.10;99.90;;;;;;4906499;29;20056;-39
2024/01/17 02:11:31;;;;;;;6.60;5.90;;;-6.00;99.90;;;;;;4905304;29;20057;-39
2024/01/17 02:17:22;;;;;;;9.23;6.00;;;-5.80;99.90;;;;;;4893602;29;20405;-36
2024/01/17 02:19:48;;;;;;;7.97;6.03;;;-5.70;99.90;;;;;;4903336;29;20032;-39
2024/01/17 02:22:14;;;;;;;5.50;5.07;;;-5.60;99.90;;;;;;4905722;29;20024;-32
2024/01/17 02:24:39;;;;;;;3.45;3.17;;;-5.60;99.90;;;;;;4905792;29;20481;-33
2024/01/17 02:27:05;;;;;;;9.60;4.90;;;-5.50;99.90;;;;;;4891056;29;20052;-33
2024/01/17 02:29:31;;;;;;;5.90;5.35;;;-5.50;99.90;;;;;;4907939;29;20039;-33
2024/01/17 02:31:57;;;;;;;10.43;7.00;;;-5.50;99.90;;;;;;4884927;29;20731;-37
2024/01/17 02:34:23;;;;;;;5.97;5.35;;;-5.40;99.90;;;;;;4906771;29;20017;-34
2024/01/17 02:36:52;;;;;;;14.35;5.97;;;-5.40;99.90;;;;;;4902786;29;20024;-36
2024/01/17 02:39:21;;;;;;;6.95;5.85;;;-5.30;99.90;;;;;;4903468;29;20145;-36
2024/01/17 02:41:55;;;;;;;;;;;-5.20;99.90;;;;;;4903391;29;20103;-33
2024/01/17 02:44:21;;;;;;;6.38;4.88;;;-5.20;99.90;;;;;;4904561;29;20395;-37
2024/01/17 02:46:47;;;;;;;5.63;4.80;;;-5.20;99.90;;;;;;4900452;29;20180;-33
2024/01/17 02:49:19;;;;;;;6.15;4.45;;;-5.10;99.90;;;;;;4905213;29;20471;-33
2024/01/17 02:51:45;;;;;;;7.07;4.47;;;-5.10;99.90;;;;;;4885811;29;20032;-35
2024/01/17 02:54:11;;;;;;;3.25;3.05;;;-5.00;99.90;;;;;;4904023;29;20039;-32
2024/01/17 02:56:36;;;;;;;7.38;4.47;;;-5.00;99.90;;;;;;4903691;29;20938;-34
2024/01/17 02:59:06;;;;;;;12.93;4.65;;;-5.00;99.90;;;;;;4904357;29;20035;-37
2024/01/17 03:01:32;;;;;;;5.25;4.85;;;-4.90;99.90;;;;;;4901552;29;20641;-34
2024/01/17 03:03:58;;;;;;;6.00;5.30;;;-4.90;99.90;;;;;;4904646;29;20099;-33
2024/01/17 03:06:24;;;;;;;4.82;4.32;;;-4.90;99.90;;;;;;4902397;29;20099;-36
2024/01/17 03:08:53;;;;;;;2.97;2.88;;;-4.90;99.90;;;;;;4903993;29;20359;-35
2024/01/17 03:11:18;;;;;;;5.25;4.53;;;-4.80;99.90;;;;;;4900121;29;20423;-31
2024/01/17 03:13:44;;;;;;;5.40;4.88;;;-4.80;99.90;;;;;;4906677;29;20096;-35
2024/01/17 03:16:10;;;;;;;12.45;6.43;;;-4.70;99.90;;;;;;4890123;29;20070;-34
2024/01/17 03:18:37;;;;;;;7.32;6.38;;;-4.70;99.90;;;;;;4890341;29;20068;-34
2024/01/17 03:21:07;;;;;;;5.63;4.05;;;-4.60;99.90;;;;;;4908597;29;20435;-33
2024/01/17 03:23:33;;;;;;;7.38;5.05;;;-4.60;99.90;;;;;;4906751;29;20115;-35
2024/01/17 03:25:59;;;;;;;7.75;5.82;;;-4.60;99.90;;;;;;4904766;29;20142;-32
2024/01/17 03:28:25;;;;;;;6.93;5.13;;;-4.60;99.90;;;;;;4905895;29;20040;-32
2024/01/17 03:30:51;;;;;;;8.88;6.15;;;-4.50;99.90;;;;;;4906053;29;20044;-35
2024/01/17 03:33:17;;;;;;;7.88;7.10;;;-4.50;99.90;;;;;;4907019;29;20422;-36
2024/01/17 03:35:42;;;;;;;6.03;5.22;;;-4.40;99.90;;;;;;4906878;29;20032;-31
2024/01/17 03:38:08;;;;;;;11.32;5.78;;;-4.40;99.90;;;;;;4890007;29;20028;-34
2024/01/17 03:40:34;;;;;;;9.95;8.38;;;-4.30;99.90;;;;;;4905025;29;20025;-32
2024/01/17 03:42:59;;;;;;;9.50;6.25;;;-4.30;99.90;;;;;;4905471;29;20075;-35
2024/01/17 03:45:26;;;;;;;8.75;5.35;;;-4.20;99.90;;;;;;4903610;29;20020;-31
2024/01/17 03:47:51;;;;;;;9.30;5.70;;;-4.10;99.90;;;;;;4904948;29;20473;-32
2024/01/17 03:50:17;;;;;;;5.30;4.53;;;-4.10;99.90;;;;;;4890332;29;20021;-32
2024/01/17 03:52:42;;;;;;;5.78;5.28;;;-4.10;99.90;;;;;;4903596;29;20075;-41
2024/01/17 03:55:08;;;;;;;8.00;5.65;;;-4.00;99.90;;;;;;4905123;29;20561;-39
2024/01/17 03:57:34;;;;;;;5.55;4.95;;;-3.90;99.90;;;;;;4904322;29;20032;-41
2024/01/17 04:00:00;;;;;;;7.53;4.93;;;-3.90;99.90;;;;;;4904125;29;20052;-41
2024/01/17 04:02:26;;;;;;;11.13;4.50;;;-3.80;99.90;;;;;;4886985;29;20128;-33
2024/01/17 04:04:52;;;;;;;6.57;5.45;;;-3.80;99.90;;;;;;4904650;29;20462;-32
2024/01/17 04:07:22;;;;;;;13.95;8.82;;;-3.80;99.90;;;;;;4906857;29;20067;-36
2024/01/17 04:09:47;;;;;;;5.70;5.15;;;-3.70;99.90;;;;;;4891807;29;20098;-35
2024/01/17 04:12:13;;;;;;;8.45;5.72;;;-3.70;99.90;;;;;;4889953;29;20036;-32
2024/01/17 04:14:39;;;;;;;5.97;4.88;;;-3.70;99.90;;;;;;4907579;29;20020;-37
2024/01/17 04:17:04;;;;;;;7.07;4.53;;;-3.60;99.90;;;;;;4905466;29;20804;-32
2024/01/17 04:19:30;;;;;;;3.80;3.58;;;-3.60;99.90;;;;;;4907336;29;20423;-32
2024/01/17 04:21:56;;;;;;;7.05;5.72;;;-3.40;99.90;;;;;;4907121;29;20044;-34
2024/01/17 04:24:25;;;;;;;10.88;6.85;;;-3.50;99.90;;;;;;4907850;29;20508;-32
2024/01/17 04:26:52;;;;;;;;;;;-3.40;99.90;;;;;;4906228;29;20064;-33
2024/01/17 04:29:18;;;;;;;5.63;5.13;;;-3.40;99.90;;;;;;4906514;29;19954;-32
2024/01/17 04:31:44;;;;;;;6.68;5.65;;;-3.30;99.90;;;;;;4907617;29;20112;-38
2024/01/17 04:34:10;;;;;;;14.50;12.98;;;-3.30;99.90;;;;;;4909180;29;20069;-33
2024/01/17 04:36:35;;;;;;;3.67;3.47;;;-3.20;99.90;;;;;;4910430;29;20040;-37
2024/01/17 04:39:01;;;;;;;2.88;2.78;;;-3.20;99.90;;;;;;4907536;29;20427;-33
2024/01/17 04:41:27;;;;;;;4.85;4.43;;;-3.00;99.90;;;;;;4912336;29;20115;-32
2024/01/17 04:43:52;;;;;;;4.03;3.72;;;-2.90;99.90;;;;;;4908224;29;20545;-38
2024/01/17 04:46:18;;;;;;;5.82;5.13;;;-2.80;99.90;;;;;;4891654;29;20040;-40
2024/01/17 04:48:45;;;;;;;9.18;5.40;;;-2.70;99.90;;;;;;4906899;29;20414;-37
2024/01/17 04:51:11;;;;;;;8.88;6.60;;;-2.70;99.90;;;;;;4908214;29;20119;-42
2024/01/17 04:53:38;;;;;;;7.38;5.80;;;-2.70;99.90;;;;;;4910392;29;20063;-42
2024/01/17 04:56:06;;;;;;;11.85;6.60;;;-2.60;99.90;;;;;;4915925;29;20031;-42
2024/01/17 04:58:32;;;;;;;10.07;6.75;;;-2.60;99.90;;;;;;4913137;29;20034;-39
2024/01/17 05:00:59;;;;;;;5.28;4.50;;;-2.50;99.90;;;;;;4907393;29;20044;-41
2024/01/17 05:03:25;;;;;;;9.13;5.85;;;-2.50;99.90;;;;;;4914970;29;20035;-41
2024/01/17 05:05:51;;;;;;;13.40;4.88;;;-2.40;99.90;;;;;;4911177;29;20041;-41
2024/01/17 05:08:16;;;;;;;5.97;4.70;;;-2.30;99.90;;;;;;4913046;29;20032;-41
2024/01/17 05:10:45;;;;;;;4.57;4.18;;;-2.30;99.90;;;;;;4914941;29;20047;-40
2024/01/17 05:13:12;;;;;;;7.32;5.40;;;-2.20;99.90;;;;;;4910367;29;20024;-32
2024/01/17 05:15:38;;;;;;;11.30;7.32;;;-2.20;99.90;;;;;;4916252;29;20036;-35
2024/01/17 05:18:05;;;;;;;5.78;4.88;;;-2.10;99.90;;;;;;4908978;29;20028;-32
2024/01/17 05:20:32;;;;;;;6.38;5.80;;;-2.00;99.90;;;;;;4908263;29;20036;-34
2024/01/17 05:22:58;;;;;;;8.18;6.38;;;-1.90;99.90;;;;;;4910608;29;20044;-36
2024/01/17 05:25:24;;;;;;;8.75;4.75;;;-1.90;99.90;;;;;;4909613;29;20090;-31
2024/01/17 05:27:52;;;;;;;8.32;5.68;;;-1.80;99.90;;;;;;4908877;29;20115;-32
2024/01/17 05:30:19;;;;;;;14.07;8.07;;;-1.70;99.90;;;;;;4907488;29;20126;-36
2024/01/17 05:32:45;;;;;;;0.80;0.80;;;-1.60;99.90;;;;;;4909709;29;20040;-36
2024/01/17 05:35:10;;;;;;;7.72;6.32;;;-1.40;99.90;;;;;;4907440;29;20028;-33
2024/01/17 05:37:40;;;;;;;7.30;5.30;;;-1.30;99.90;;;;;;4910007;29;20024;-38
2024/01/17 05:40:11;;;;;;;2.17;1.98;;;-1.20;99.90;;;;;;4891369;29;20122;-34
2024/01/17 05:42:39;;;;;;;5.28;4.63;;;-1.00;99.90;;;;;;4906250;29;20062;-34
2024/01/17 05:45:07;;;;;;;9.65;3.35;;;-0.90;99.90;;;;;;4903481;29;20035;-32
2024/01/17 05:47:37;;;;;;;14.20;5.40;;;-0.80;99.90;;;;;;4907832;29;20036;-37
2024/01/17 05:50:03;;;;;;;7.55;4.82;;;-0.80;99.90;;;;;;4892911;29;20323;-32
2024/01/17 05:52:30;;;;;;;4.32;3.40;;;-0.70;99.90;;;;;;4910065;29;20039;-34
2024/01/17 05:54:56;;;;;;;6.65;4.18;;;-0.50;99.90;;;;;;4905314;29;20032;-39
2024/01/17 05:57:23;;;;;;;6.07;3.72;;;-0.50;99.90;;;;;;4894436;29;20056;-32
2024/01/17 05:59:49;;;;;;;8.50;4.88;;;-0.50;99.90;;;;;;4892906;29;20084;-33
2024/01/17 06:02:15;;;;;;;5.63;3.95;;;-0.30;99.90;;;;;;4894077;29;20494;-32
2024/01/17 06:04:41;;;;;;;3.88;3.08;;;-0.20;99.90;;;;;;4893714;29;20024;-33
2024/01/17 06:07:07;;;;;;;5.18;4.60;;;-0.20;99.90;;;;;;4900155;29;20083;-35
2024/01/17 06:09:33;;;;;;;6.82;4.22;;;-0.10;99.90;;;;;;4896186;29;20048;-35
2024/01/17 06:12:06;;;;;;;2.20;1.45;;;-0.10;99.90;;;;;;4908766;29;20722;-36
2024/01/17 06:14:32;;;;;;;2.50;2.13;;;0.00;99.90;;;;;;4889523;29;20024;-35
2024/01/17 06:16:58;;;;;;;4.57;4.13;;;0.10;99.90;;;;;;4908352;29;20055;-32
2024/01/17 06:19:24;;;;;;;3.33;3.00;;;0.20;99.90;;;;;;4911201;29;20518;-38
2024/01/17 06:21:50;;;;;;;3.20;2.90;;;0.10;99.90;;;;;;4897175;29;20032;-35
2024/01/17 06:24:15;;;;;;;1.23;1.23;;;0.20;99.90;;;;;;4910176;29;20099;-33
2024/01/17 06:26:42;;;;;;;4.70;3.00;;;0.30;99.90;;;;;;4908278;29;20067;-32
2024/01/17 06:29:08;;;;;;;8.13;4.50;;;0.30;99.90;;;;;;4892968;29;20043;-32
2024/01/17 06:31:33;;;;;;;6.03;4.20;;;0.30;99.90;;;;;;4908111;29;20064;-35
2024/01/17 06:33:59;;;;;;;6.80;3.75;;;0.30;99.90;;;;;;4908870;29;20024;-35
2024/01/17 06:36:24;;;;;;;8.15;3.58;;;0.40;99.90;;;;;;4906883;29;20032;-34
2024/01/17 06:38:50;;;;;;;1.85;1.77;;;0.30;99.90;;;;;;4892178;29;20083;-36
2024/01/17 06:41:17;;;;;;;5.95;3.13;;;0.40;99.90;;;;;;4893556;29;20107;-33
2024/01/17 06:43:44;;;;;;;4.78;3.33;;;0.40;99.90;;;;;;4891311;29;20028;-37
2024/01/17 06:46:10;;;;;;;4.20;3.40;;;0.50;99.90;;;;;;4909639;29;20028;-32
2024/01/17 06:48:36;;;;;;;4.70;3.20;;;0.50;99.90;;;;;;4903350;29;20104;-33
2024/01/17 06:51:03;;;;;;;2.75;1.95;;;0.50;99.90;;;;;;4905709;29;20130;-34
2024/01/17 06:53:31;;;;;;;3.55;2.72;;;0.50;99.90;;;;;;4890146;29;20032;-35
2024/01/17 06:55:57;;;;;;;2.80;2.40;;;0.60;99.90;;;;;;4908724;29;20428;-32
2024/01/17 06:58:23;;;;;;;3.72;2.80;;;0.60;99.90;;;;;;4893101;29;20032;-32
2024/01/17 07:00:48;;;;;;;2.92;2.42;;;0.60;99.90;;;;;;4904945;29;20047;-33
2024/01/17 07:03:14;;;;;;;3.90;3.17;;;0.70;99.90;;;;;;4907729;29;20040;-40
2024/01/17 07:05:41;;;;;;;3.42;2.90;;;0.70;99.90;;;;;;4905685;29;20032;-41
2024/01/17 07:08:06;;;;;;;2.75;2.53;;;0.70;99.90;;;;;;4906490;29;20646;-38
2024/01/17 07:10:36;;;;;;;5.50;2.80;;;0.70;99.90;;;;;;4905574;29;20044;-41
2024/01/17 07:13:02;;;;;;;3.85;2.92;;;0.70;99.90;;;;;;4896168;29;20058;-40
2024/01/17 07:15:27;;;;;;;4.07;2.72;;;0.70;99.90;;;;;;4908385;29;20478;-39
2024/01/17 07:17:53;;;;;;;4.20;2.78;;;0.80;99.90;;;;;;4906902;29;20126;-38
2024/01/17 07:20:19;;;;;;;3.58;2.47;;;0.80;99.90;;;;;;4904553;29;20434;-40
2024/01/17 07:22:44;;;;;;;3.95;2.97;;;0.80;99.90;;;;;;4891972;29;20438;-39
2024/01/17 07:25:12;;;;;;;2.83;2.25;;;0.80;99.90;;;;;;4906667;29;20078;-40
2024/01/17 07:27:44;;;;;;;5.63;2.75;;;0.90;99.90;;;;;;4910496;29;20028;-35
2024/01/17 07:30:11;;;;;;;3.08;2.83;;;0.90;99.90;;;;;;4902649;29;20411;-41
2024/01/17 07:32:41;;;;;;;1.88;1.73;;;0.80;99.90;;;;;;4913599;29;20033;-36
2024/01/17 07:35:07;;;;;;;2.88;2.55;;;0.90;99.90;;;;;;4890858;29;20090;-35
2024/01/17 07:37:35;;;;;;;3.20;2.90;;;0.90;99.90;;;;;;4890824;29;20052;-38
2024/01/17 07:40:01;;;;;;;5.07;2.10;;;0.90;99.90;;;;;;4905813;29;20522;-36
2024/01/17 07:42:26;;;;;;;1.58;1.48;;;0.90;99.90;;;;;;4910202;29;20040;-33
2024/01/17 07:44:52;;;;;;;2.72;2.45;;;0.90;99.90;;;;;;4910658;29;20032;-33
2024/01/17 07:47:21;;;;;;;3.03;1.88;;;0.90;99.90;;;;;;4896726;29;20064;-33
2024/01/17 07:49:48;;;;;;;6.00;2.03;;;0.90;99.90;;;;;;4893495;29;20074;-35
2024/01/17 07:52:20;;;;;;;3.65;2.67;;;0.90;99.90;;;;;;4907616;29;20036;-32
2024/01/17 07:54:46;;;;;;;2.65;2.15;;;1.00;99.90;;;;;;4909474;29;20027;-35
2024/01/17 07:57:12;;;;;;;2.95;2.10;;;1.00;99.90;;;;;;4908773;29;20032;-33
2024/01/17 07:59:37;;;;;;;3.55;2.00;;;1.00;99.90;;;;;;4896294;29;20035;-35
2024/01/17 08:02:04;;;;;;;3.30;2.75;;;1.00;99.90;;;;;;4906638;29;20040;-35
2024/01/17 08:04:30;;;;;;;2.20;2.05;;;1.00;99.90;;;;;;4911581;29;20055;-34
2024/01/17 08:06:56;;;;;;;2.50;2.30;;;1.10;99.90;;;;;;4913762;29;20040;-37
2024/01/17 08:09:22;;;;;;;2.47;2.28;;;1.10;99.90;;;;;;4913024;29;20681;-33
2024/01/17 08:11:49;;;;;;;3.00;2.42;;;1.10;99.90;;;;;;4917338;29;20537;-41
2024/01/17 08:14:15;;;;;;;2.88;2.58;;;1.10;99.90;;;;;;4906510;29;20439;-41
2024/01/17 08:16:40;;;;;;;4.82;2.58;;;1.10;99.90;;;;;;4908993;29;20036;-41
2024/01/17 08:19:06;;;;;;;4.85;2.45;;;1.20;99.90;;;;;;4904455;29;20029;-38
2024/01/17 08:21:32;;;;;;;1.55;1.52;;;1.20;99.90;;;;;;4910057;29;20036;-41
2024/01/17 08:23:59;;;;;;;2.40;2.20;;;1.20;99.90;;;;;;4907218;29;20370;-32
2024/01/17 08:26:25;;;;;;;4.80;3.08;;;1.20;99.90;;;;;;4910096;29;20036;-34
2024/01/17 08:28:50;;;;;;;2.83;2.47;;;1.20;99.90;;;;;;4904247;29;20033;-33
2024/01/17 08:31:16;;;;;;;1.67;1.58;;;1.20;99.90;;;;;;4907365;29;20078;-31
2024/01/17 08:33:42;;;;;;;7.18;2.83;;;1.20;99.90;;;;;;4904906;29;20048;-32
2024/01/17 08:36:08;;;;;;;3.42;2.80;;;1.20;99.90;;;;;;4909837;29;20036;-35
2024/01/17 08:38:34;;;;;;;4.18;2.45;;;1.30;99.90;;;;;;4906024;29;20043;-35
2024/01/17 08:40:59;;;;;;;2.33;2.17;;;1.20;99.90;;;;;;4908989;29;20058;-39
2024/01/17 08:43:25;;;;;;;2.95;2.15;;;1.30;99.90;;;;;;4911155;29;20051;-37
2024/01/17 08:45:50;;;;;;;4.53;2.42;;;1.30;99.90;;;;;;4916580;29;20043;-35
2024/01/17 08:48:16;;;;;;;3.42;2.30;;;1.30;99.90;;;;;;4918539;29;20036;-33
2024/01/17 08:50:42;;;;;;;1.42;1.42;;;1.30;99.90;;;;;;4916639;29;20055;-33
2024/01/17 08:53:07;;;;;;;9.70;5.05;;;1.30;99.90;;;;;;4915348;29;20036;-34
2024/01/17 08:55:33;;;;;;;12.60;4.88;;;1.30;99.90;;;;;;4914404;29;20082;-33
2024/01/17 08:57:58;;;;;;;7.70;4.65;;;1.30;99.90;;;;;;4913279;29;20032;-37
2024/01/17 09:00:24;;;;;;;4.15;3.35;;;1.30;99.90;;;;;;4913311;29;20763;-34
2024/01/17 09:02:50;;;;;;;19.90;10.23;;;1.40;99.90;;;;;;4912849;29;20066;-35
2024/01/17 09:05:18;;;;;;;40.17;19.67;;;1.40;99.90;;;;;;4917086;29;20043;-34
2024/01/17 09:07:45;;;;;;;10.48;6.60;;;1.40;99.90;;;;;;4912468;29;20048;-39
2024/01/17 09:10:13;;;;;;;6.63;3.58;;;1.40;99.90;;;;;;4918599;29;20040;-34
2024/01/17 09:12:38;;;;;;;6.45;3.67;;;1.40;99.90;;;;;;4913087;29;20426;-33
2024/01/17 09:15:05;;;;;;;32.17;16.63;;;1.50;99.90;;;;;;4916421;29;20028;-36
2024/01/17 09:17:31;;;;;;;3.08;2.90;;;1.50;99.90;;;;;;4913751;29;20087;-36
2024/01/17 09:19:56;;;;;;;2.38;2.17;;;1.50;99.90;;;;;;4914014;29;20052;-36
2024/01/17 09:22:22;;;;;;;19.17;10.48;;;1.60;99.90;;;;;;4915584;29;20401;-40
2024/01/17 09:24:48;;;;;;;23.33;11.85;;;1.60;99.90;;;;;;4908402;29;20039;-41
2024/01/17 09:27:14;;;;;;;10.88;6.32;;;1.50;99.90;;;;;;4911384;29;20630;-39
2024/01/17 09:29:40;;;;;;;8.27;5.43;;;1.60;99.90;;;;;;4913530;29;20047;-38
2024/01/17 09:32:06;;;;;;;7.22;6.10;;;1.60;99.90;;;;;;4911111;29;20778;-34
2024/01/17 09:34:36;;;;;;;10.93;5.68;;;1.60;99.90;;;;;;4912650;29;20738;-34
2024/01/17 09:37:02;;;;;;;20.40;14.20;;;1.60;99.90;;;;;;4915042;29;20024;-35
2024/01/17 09:39:29;;;;;;;19.38;9.23;;;1.60;99.90;;;;;;4918256;29;20046;-37
2024/01/17 09:41:57;;;;;;;16.27;5.82;;;1.60;99.90;;;;;;4912183;29;20035;-36
2024/01/17 09:44:23;;;;;;;6.10;5.00;;;1.60;99.90;;;;;;4916349;29;20054;-36
2024/01/17 09:46:50;;;;;;;7.55;5.28;;;1.60;99.90;;;;;;4907894;29;20458;-35
2024/01/17 09:49:16;;;;;;;5.20;4.10;;;1.60;99.90;;;;;;4912082;29;20153;-36
2024/01/17 09:51:42;;;;;;;4.32;3.92;;;1.60;99.90;;;;;;4912990;29;20600;-33
2024/01/17 09:54:10;;;;;;;4.78;3.50;;;1.50;99.90;;;;;;4912104;29;20028;-39
2024/01/17 09:56:38;;;;;;;3.67;3.35;;;1.50;99.90;;;;;;4913446;29;20473;-40
2024/01/17 09:59:23;;;;;;;4.25;3.15;;;1.60;99.90;;;;;;4906487;29;20501;-41
2024/01/17 10:01:48;;;;;;;4.10;3.28;;;1.60;99.90;;;;;;4908763;29;20123;-40
2024/01/17 10:04:15;;;;;;;4.70;3.90;;;1.70;99.90;;;;;;4910620;29;20558;-40
2024/01/17 10:06:45;;;;;;;5.43;2.88;;;1.70;99.90;;;;;;4908129;29;20024;-42
2024/01/17 10:09:11;;;;;;;5.75;2.78;;;1.70;99.90;;;;;;4904660;29;20402;-40
2024/01/17 10:11:38;;;;;;;10.80;3.42;;;1.70;99.90;;;;;;4901881;29;20055;-35
2024/01/17 10:14:04;;;;;;;2.63;2.40;;;1.80;99.90;;;;;;4904207;29;20039;-38
2024/01/17 10:16:31;;;;;;;2.75;2.42;;;1.80;99.90;;;;;;4906333;29;20039;-39
2024/01/17 10:18:57;;;;;;;6.30;3.97;;;1.80;99.90;;;;;;4907720;29;20474;-40
2024/01/17 10:21:22;;;;;;;3.60;3.30;;;1.80;99.90;;;;;;4886693;29;20517;-38
2024/01/17 10:23:49;;;;;;;3.33;2.72;;;1.80;99.90;;;;;;4895358;29;20131;-38
2024/01/17 10:26:14;;;;;;;4.47;2.50;;;1.80;99.90;;;;;;4903950;29;20039;-41
2024/01/17 10:28:40;;;;;;;3.05;2.85;;;1.80;99.90;;;;;;4904712;29;20091;-42
2024/01/17 10:31:06;;;;;;;3.45;3.17;;;1.90;99.90;;;;;;4905440;29;20036;-39
2024/01/17 10:33:32;;;;;;;5.57;4.25;;;1.90;99.90;;;;;;4904982;29;20423;-42
2024/01/17 10:35:59;;;;;;;2.85;2.63;;;1.90;99.90;;;;;;4907464;29;20071;-39
2024/01/17 10:38:31;;;;;;;2.28;2.08;;;1.90;99.90;;;;;;4905829;29;20036;-41
2024/01/17 10:41:05;;;;;;;5.18;3.47;;;2.00;99.90;;;;;;4909184;29;20087;-41
2024/01/17 10:43:30;;;;;;;7.10;3.90;;;2.00;99.90;;;;;;4906828;29;20262;-40
2024/01/17 10:45:56;;;;;;;4.75;4.35;;;1.90;99.90;;;;;;4907648;29;20020;-42
2024/01/17 10:48:25;;;;;;;5.03;3.45;;;1.90;99.90;;;;;;4907921;29;20581;-39
2024/01/17 10:50:58;;;;;;;6.57;4.07;;;2.00;99.90;;;;;;4907895;29;20322;-41
2024/01/17 10:53:26;;;;;;;5.22;3.38;;;1.90;99.90;;;;;;4910250;29;20039;-37
2024/01/17 10:56:00;;;;;;;81.13;30.75;;;2.00;99.90;;;;;;4906083;29;20032;-39
2024/01/17 10:58:26;;;;;;;25.45;9.90;;;2.00;99.90;;;;;;4903735;29;20031;-37
2024/01/17 11:00:52;;;;;;;6.90;3.30;;;2.10;99.90;;;;;;4899526;29;20040;-40
2024/01/17 11:03:20;;;;;;;3.05;2.17;;;2.10;99.90;;;;;;4902821;29;20107;-38
2024/01/17 11:05:49;;;;;;;3.03;2.20;;;2.20;99.90;;;;;;4903669;29;20037;-37
2024/01/17 11:08:16;;;;;;;2.05;1.95;;;2.20;99.90;;;;;;4904644;29;20055;-41
2024/01/17 11:10:43;;;;;;;2.67;2.30;;;2.30;99.90;;;;;;4902078;29;20119;-39
2024/01/17 11:13:11;;;;;;;1.10;1.10;;;2.30;99.90;;;;;;4904554;29;20323;-40
2024/01/17 11:15:38;;;;;;;2.20;1.90;;;2.30;99.90;;;;;;4904861;29;20032;-39
2024/01/17 11:18:05;;;;;;;2.63;2.20;;;2.20;99.90;;;;;;4907077;29;20021;-40
2024/01/17 11:20:31;;;;;;;2.88;2.35;;;2.30;99.90;;;;;;4890245;29;20368;-41
2024/01/17 11:23:01;;;;;;;2.47;2.20;;;2.30;99.90;;;;;;4902669;29;20098;-39
2024/01/17 11:25:50;;;;;;;2.67;2.00;;;2.40;99.90;;;;;;4910215;29;20030;-41
2024/01/17 11:28:19;;;;;;;2.20;1.92;;;2.30;99.90;;;;;;4905517;29;20040;-41
2024/01/17 11:31:05;;;;;;;;;;;2.30;99.90;;;;;;4903401;29;20120;-38
2024/01/17 11:33:32;;;;;;;1.50;1.50;;;2.30;99.90;;;;;;4903301;29;19922;-37
2024/01/17 11:35:59;;;;;;;1.67;1.33;;;2.30;99.90;;;;;;4902624;29;20382;-41
2024/01/17 11:38:24;;;;;;;3.90;1.83;;;2.30;99.90;;;;;;4901821;29;20036;-38
2024/01/17 11:40:53;;;;;;;3.15;2.22;;;2.30;99.90;;;;;;4904599;29;20091;-36
2024/01/17 11:43:19;;;;;;;2.92;1.90;;;2.30;99.90;;;;;;4904161;29;20446;-40
2024/01/17 11:45:50;;;;;;;2.47;2.28;;;2.30;99.90;;;;;;4902879;29;20024;-38
2024/01/17 11:48:26;;;;;;;2.40;2.20;;;2.30;99.90;;;;;;4901501;29;20098;-39
2024/01/17 11:51:01;;;;;;;4.65;2.50;;;2.30;99.90;;;;;;4902528;29;20039;-40
2024/01/17 11:53:28;;;;;;;4.13;3.40;;;2.30;99.90;;;;;;4905950;29;20032;-36
2024/01/17 11:55:55;;;;;;;10.55;6.07;;;2.40;99.90;;;;;;4903083;29;20034;-36
2024/01/17 11:58:22;;;;;;;7.78;5.72;;;2.40;99.90;;;;;;4889157;29;20044;-33
2024/01/17 12:00:51;;;;;;;16.27;8.95;;;2.40;99.90;;;;;;4903853;29;20040;-37
2024/01/17 12:03:30;;;;;;;9.32;5.57;;;2.40;99.90;;;;;;4902172;29;20032;-32
2024/01/17 12:05:55;;;;;;;9.02;5.93;;;2.50;99.90;;;;;;4901832;29;20035;-32
2024/01/17 12:08:21;;;;;;;3.03;2.83;;;2.40;99.90;;;;;;4903372;29;20053;-32
2024/01/17 12:10:56;;;;;;;8.30;5.35;;;2.50;99.90;;;;;;4905589;29;20043;-35
2024/01/17 12:13:23;;;;;;;4.55;3.47;;;2.50;99.90;;;;;;4904805;29;20084;-35
2024/01/17 12:15:55;;;;;;;3.20;2.80;;;2.50;99.90;;;;;;4905292;29;20028;-33
2024/01/17 12:18:24;;;;;;;5.00;3.75;;;2.50;99.90;;;;;;4901529;29;20055;-33
2024/01/17 12:20:52;;;;;;;4.82;2.65;;;2.60;99.90;;;;;;4902852;29;20036;-35
2024/01/17 12:23:19;;;;;;;3.95;3.25;;;2.60;99.90;;;;;;4903800;29;20554;-39
2024/01/17 12:25:45;;;;;;;3.97;2.88;;;2.60;99.90;;;;;;4901729;29;20753;-39
2024/01/17 12:28:18;;;;;;;3.58;2.72;;;2.70;99.90;;;;;;4905140;29;20130;-41
2024/01/17 12:30:58;;;;;;;4.97;2.67;;;2.70;99.90;;;;;;4901546;29;20044;-37
2024/01/17 12:33:25;;;;;;;4.18;2.60;;;2.70;99.90;;;;;;4900643;29;20050;-36
2024/01/17 12:35:52;;;;;;;4.25;2.63;;;2.60;99.90;;;;;;4887198;29;20040;-38
2024/01/17 12:38:18;;;;;;;2.60;2.38;;;2.60;99.90;;;;;;4904100;29;20032;-40
2024/01/17 12:40:47;;;;;;;3.25;2.55;;;2.60;99.90;;;;;;4903611;29;20020;-38
2024/01/17 12:43:13;;;;;;;2.97;2.70;;;2.50;99.90;;;;;;4901912;29;21713;-41
2024/01/17 12:45:39;;;;;;;3.63;3.05;;;2.60;99.90;;;;;;4907398;29;20036;-39
2024/01/17 12:48:05;;;;;;;4.78;2.80;;;2.60;99.90;;;;;;4902350;29;20095;-39
2024/01/17 12:50:32;;;;;;;3.33;3.10;;;2.60;99.90;;;;;;4908062;29;20036;-39